Time;durP1;ratioP1;P1;durP2;ratioP2;P2;SDS_P1;SDS_P2;PMS_P1;PMS_P2;Temp;Humidity;BMP_temperature;BMP_pressure;BME280_temperature;BME280_humidity;BME280_pressure;Samples;Min_cycle;Max_cycle;Signal;HPM_P1;HPM_P2
2022/08/20 00:01:03;;;;;;;0.00;0.00;;;;;;;;;;5072563;28;20048;-87
2022/08/20 00:03:34;;;;;;;0.00;0.00;;;;;;;;;;5055126;28;20061;-87
2022/08/20 00:06:01;;;;;;;0.00;0.00;;;;;;;;;;5054632;28;20041;-86
2022/08/20 00:08:28;;;;;;;0.00;0.00;;;;;;;;;;5073032;28;20032;-86
2022/08/20 00:10:55;;;;;;;0.00;0.00;;;;;;;;;;5054329;28;20045;-86
2022/08/20 00:13:23;;;;;;;0.00;0.00;;;;;;;;;;5055031;28;20082;-86
2022/08/20 00:15:49;;;;;;;0.00;0.00;;;;;;;;;;5072784;28;20118;-87
2022/08/20 00:18:16;;;;;;;0.00;0.00;;;;;;;;;;5054960;28;20041;-86
2022/08/20 00:20:47;;;;;;;0.00;0.00;;;;;;;;;;5054502;28;20143;-86
2022/08/20 00:23:13;;;;;;;0.00;0.00;;;;;;;;;;5072828;28;20084;-85
2022/08/20 00:25:39;;;;;;;0.00;0.00;;;;;;;;;;5054401;28;20074;-86
2022/08/20 00:28:06;;;;;;;0.15;0.10;;;;;;;;;;5054719;28;20082;-86
2022/08/20 00:30:34;;;;;;;0.00;0.00;;;;;;;;;;5054825;28;20246;-87
2022/08/20 00:33:05;;;;;;;0.00;0.00;;;;;;;;;;5054527;28;20044;-85
2022/08/20 00:35:33;;;;;;;0.00;0.00;;;;;;;;;;5054252;28;20048;-86
2022/08/20 00:37:59;;;;;;;0.00;0.00;;;;;;;;;;5072622;28;20119;-85
2022/08/20 00:40:27;;;;;;;0.00;0.00;;;;;;;;;;5054344;28;20041;-86
2022/08/20 00:42:57;;;;;;;0.00;0.00;;;;;;;;;;5072650;28;20048;-85
2022/08/20 00:45:23;;;;;;;0.00;0.00;;;;;;;;;;5072458;28;20032;-85
2022/08/20 00:47:49;;;;;;;0.00;0.00;;;;;;;;;;5054737;28;20063;-85
2022/08/20 00:50:17;;;;;;;0.00;0.00;;;;;;;;;;5054297;28;20480;-86
2022/08/20 00:52:44;;;;;;;0.00;0.00;;;;;;;;;;5054305;28;20045;-85
2022/08/20 00:55:11;;;;;;;0.00;0.00;;;;;;;;;;5072312;28;20033;-87
2022/08/20 00:57:39;;;;;;;0.00;0.00;;;;;;;;;;5054654;28;20094;-85
2022/08/20 01:00:09;;;;;;;0.00;0.00;;;;;;;;;;5054103;28;20045;-85
2022/08/20 01:02:35;;;;;;;0.00;0.00;;;;;;;;;;5072665;28;20048;-85
2022/08/20 01:05:01;;;;;;;0.00;0.00;;;;;;;;;;5072122;28;20055;-86
2022/08/20 01:07:32;;;;;;;0.00;0.00;;;;;;;;;;5072179;28;20036;-87
2022/08/20 01:09:59;;;;;;;0.00;0.00;;;;;;;;;;5071924;28;20455;-86
2022/08/20 01:12:26;;;;;;;0.00;0.00;;;;;;;;;;5054264;28;20044;-87
2022/08/20 01:14:52;;;;;;;0.00;0.00;;;;;;;;;;5054047;28;20045;-86
2022/08/20 01:17:21;;;;;;;0.00;0.00;;;;;;;;;;5072269;28;20043;-86
2022/08/20 01:19:52;;;;;;;0.15;0.00;;;;;;;;;;5053915;28;20484;-85
2022/08/20 01:25:11;;;;;;;0.00;0.00;;;;;;;;;;5075384;28;20131;-87
2022/08/20 01:27:37;;;;;;;0.00;0.00;;;;;;;;;;5057660;28;20128;-85
2022/08/20 01:30:04;;;;;;;0.00;0.00;;;;;;;;;;5075288;28;20429;-86
2022/08/20 01:32:30;;;;;;;0.00;0.00;;;;;;;;;;5057509;28;20055;-87
2022/08/20 01:34:56;;;;;;;0.00;0.00;;;;;;;;;;5075072;28;20131;-85
2022/08/20 01:37:22;;;;;;;0.00;0.00;;;;;;;;;;5075424;28;20501;-86
2022/08/20 01:39:48;;;;;;;0.00;0.00;;;;;;;;;;5057171;28;20067;-86
2022/08/20 01:42:18;;;;;;;0.00;0.00;;;;;;;;;;5057659;28;20055;-86
2022/08/20 01:44:45;;;;;;;0.00;0.00;;;;;;;;;;5075127;28;20040;-86
2022/08/20 01:47:17;;;;;;;0.00;0.00;;;;;;;;;;5075226;28;20492;-86
2022/08/20 01:49:44;;;;;;;0.00;0.00;;;;;;;;;;5075360;28;20040;-85
2022/08/20 01:52:13;;;;;;;0.00;0.00;;;;;;;;;;5075076;28;20044;-85
2022/08/20 01:54:39;;;;;;;0.00;0.00;;;;;;;;;;5057168;28;20040;-86
2022/08/20 01:57:16;;;;;;;0.00;0.00;;;;;;;;;;5075030;28;20072;-86
2022/08/20 01:59:42;;;;;;;0.00;0.00;;;;;;;;;;5057045;28;20067;-86
2022/08/20 02:02:08;;;;;;;0.00;0.00;;;;;;;;;;5056732;28;20075;-86
2022/08/20 02:04:34;;;;;;;0.00;0.00;;;;;;;;;;5075038;28;20063;-87
2022/08/20 02:07:03;;;;;;;0.00;0.00;;;;;;;;;;5074650;28;20032;-86
2022/08/20 02:09:30;;;;;;;0.00;0.00;;;;;;;;;;5057112;28;20052;-87
2022/08/20 02:11:56;;;;;;;0.00;0.00;;;;;;;;;;5056719;28;20089;-85
2022/08/20 02:14:23;;;;;;;0.00;0.00;;;;;;;;;;5074598;28;20067;-87
2022/08/20 02:16:49;;;;;;;0.00;0.00;;;;;;;;;;5056579;28;20036;-85
2022/08/20 02:19:31;;;;;;;0.00;0.00;;;;;;;;;;5074930;28;20103;-85
2022/08/20 02:21:59;;;;;;;0.00;0.00;;;;;;;;;;5039734;28;20047;-86
2022/08/20 02:24:25;;;;;;;0.00;0.00;;;;;;;;;;5074497;28;20036;-87
2022/08/20 02:26:51;;;;;;;0.00;0.00;;;;;;;;;;5056301;28;20063;-86
2022/08/20 02:29:18;;;;;;;0.00;0.00;;;;;;;;;;5056712;28;20479;-86
2022/08/20 02:31:45;;;;;;;0.00;0.00;;;;;;;;;;5074072;28;20570;-86
2022/08/20 02:34:12;;;;;;;0.00;0.00;;;;;;;;;;5056534;28;20041;-87
2022/08/20 02:36:39;;;;;;;0.00;0.00;;;;;;;;;;5056167;28;20050;-86
2022/08/20 02:39:06;;;;;;;0.00;0.00;;;;;;;;;;5056263;28;20050;-86
2022/08/20 02:41:33;;;;;;;0.00;0.00;;;;;;;;;;5056080;28;20086;-86
2022/08/20 02:43:59;;;;;;;0.00;0.00;;;;;;;;;;5074277;28;20041;-86
2022/08/20 02:46:27;;;;;;;0.00;0.00;;;;;;;;;;5056067;28;20052;-85
2022/08/20 02:48:54;;;;;;;0.00;0.00;;;;;;;;;;5056346;28;20052;-85
2022/08/20 02:51:20;;;;;;;0.00;0.00;;;;;;;;;;5055696;28;20047;-86
2022/08/20 02:53:46;;;;;;;0.00;0.00;;;;;;;;;;5056396;28;20036;-86
2022/08/20 02:56:12;;;;;;;0.00;0.00;;;;;;;;;;5055993;28;20452;-86
2022/08/20 02:58:39;;;;;;;0.00;0.00;;;;;;;;;;5074043;28;20040;-86
2022/08/20 03:01:06;;;;;;;0.00;0.00;;;;;;;;;;5073794;28;20045;-85
2022/08/20 03:03:32;;;;;;;0.00;0.00;;;;;;;;;;5055963;28;20051;-86
2022/08/20 03:05:59;;;;;;;0.00;0.00;;;;;;;;;;5055632;28;20044;-87
2022/08/20 03:08:26;;;;;;;0.00;0.00;;;;;;;;;;5055790;28;20040;-86
2022/08/20 03:10:52;;;;;;;0.00;0.00;;;;;;;;;;5055814;28;20036;-86
2022/08/20 03:13:18;;;;;;;0.00;0.00;;;;;;;;;;5073426;28;20549;-86
2022/08/20 03:16:03;;;;;;;0.00;0.00;;;;;;;;;;5055351;28;20037;-85
2022/08/20 03:18:31;;;;;;;0.00;0.00;;;;;;;;;;5073691;28;20044;-86
2022/08/20 03:20:58;;;;;;;0.00;0.00;;;;;;;;;;5055197;28;20048;-86
2022/08/20 03:23:24;;;;;;;0.00;0.00;;;;;;;;;;5055447;28;20062;-86
2022/08/20 03:25:49;;;;;;;0.00;0.00;;;;;;;;;;5072985;28;20158;-87
2022/08/20 03:28:17;;;;;;;0.00;0.00;;;;;;;;;;5055796;28;20150;-86
2022/08/20 03:30:43;;;;;;;0.00;0.00;;;;;;;;;;5073502;28;20047;-87
2022/08/20 03:33:10;;;;;;;0.00;0.00;;;;;;;;;;5055141;28;20044;-86
2022/08/20 03:35:36;;;;;;;0.00;0.00;;;;;;;;;;5073375;28;20040;-85
2022/08/20 03:38:06;;;;;;;0.00;0.00;;;;;;;;;;5055266;28;20087;-85
2022/08/20 03:40:34;;;;;;;0.00;0.00;;;;;;;;;;5055162;28;20040;-86
2022/08/20 03:43:00;;;;;;;0.00;0.00;;;;;;;;;;5055340;28;20048;-86
2022/08/20 03:45:26;;;;;;;0.00;0.00;;;;;;;;;;5072457;28;20044;-86
2022/08/20 03:47:53;;;;;;;0.00;0.00;;;;;;;;;;5054874;28;20054;-86
2022/08/20 03:50:23;;;;;;;0.00;0.00;;;;;;;;;;5073246;28;20055;-87
2022/08/20 03:52:50;;;;;;;0.00;0.00;;;;;;;;;;5072969;28;20048;-85
2022/08/20 03:55:16;;;;;;;0.00;0.00;;;;;;;;;;5054965;28;20040;-86
2022/08/20 03:57:47;;;;;;;0.00;0.00;;;;;;;;;;5073035;28;20039;-86
2022/08/20 04:00:14;;;;;;;0.00;0.00;;;;;;;;;;5054961;28;20041;-87
2022/08/20 04:02:40;;;;;;;0.00;0.00;;;;;;;;;;5072651;28;20384;-88
2022/08/20 04:05:06;;;;;;;0.00;0.00;;;;;;;;;;5054816;28;20123;-86
2022/08/20 04:07:32;;;;;;;0.00;0.00;;;;;;;;;;5054905;28;20479;-87
2022/08/20 04:09:58;;;;;;;0.00;0.00;;;;;;;;;;5072789;28;20479;-87
2022/08/20 04:12:25;;;;;;;0.00;0.00;;;;;;;;;;5072579;28;20089;-87
2022/08/20 04:14:51;;;;;;;0.00;0.00;;;;;;;;;;5054992;28;20080;-86
2022/08/20 04:17:18;;;;;;;0.00;0.00;;;;;;;;;;5072744;28;20039;-87
2022/08/20 04:19:44;;;;;;;0.00;0.00;;;;;;;;;;5054803;28;20040;-86
2022/08/20 04:22:13;;;;;;;0.00;0.00;;;;;;;;;;5054460;28;20513;-87
2022/08/20 04:24:41;;;;;;;0.00;0.00;;;;;;;;;;5072362;28;20048;-86
2022/08/20 04:27:07;;;;;;;0.00;0.00;;;;;;;;;;5072763;28;20052;-86
2022/08/20 04:29:35;;;;;;;0.00;0.00;;;;;;;;;;5072817;28;20379;-86
2022/08/20 04:32:01;;;;;;;0.00;0.00;;;;;;;;;;5072569;28;20532;-85
2022/08/20 04:34:28;;;;;;;0.00;0.00;;;;;;;;;;5072610;28;20040;-87
2022/08/20 04:36:54;;;;;;;0.00;0.00;;;;;;;;;;5072519;28;20337;-86
2022/08/20 04:39:20;;;;;;;0.00;0.00;;;;;;;;;;5072763;28;20513;-86
2022/08/20 04:41:46;;;;;;;0.00;0.00;;;;;;;;;;5054660;28;20040;-86
2022/08/20 04:44:13;;;;;;;0.00;0.00;;;;;;;;;;5072522;28;20040;-85
2022/08/20 04:46:39;;;;;;;0.00;0.00;;;;;;;;;;5072170;28;20461;-86
2022/08/20 04:49:05;;;;;;;0.00;0.00;;;;;;;;;;5054451;28;20044;-86
2022/08/20 04:51:32;;;;;;;0.00;0.00;;;;;;;;;;5072636;28;20055;-88
2022/08/20 04:53:59;;;;;;;0.00;0.00;;;;;;;;;;5055020;28;20115;-89
2022/08/20 04:56:28;;;;;;;0.00;0.00;;;;;;;;;;5073436;28;20047;-85
2022/08/20 04:58:55;;;;;;;0.00;0.00;;;;;;;;;;5076239;28;20037;-86
2022/08/20 05:01:22;;;;;;;0.00;0.00;;;;;;;;;;5076296;28;20043;-86
2022/08/20 05:03:48;;;;;;;0.00;0.00;;;;;;;;;;5057942;28;20441;-86
2022/08/20 05:06:16;;;;;;;0.00;0.00;;;;;;;;;;5076216;28;20093;-86
2022/08/20 05:08:42;;;;;;;0.00;0.00;;;;;;;;;;5057832;28;20052;-84
2022/08/20 05:11:09;;;;;;;0.00;0.00;;;;;;;;;;5076096;28;20033;-85
2022/08/20 05:13:35;;;;;;;0.00;0.00;;;;;;;;;;5057924;28;20131;-85
2022/08/20 05:16:03;;;;;;;0.00;0.00;;;;;;;;;;5058000;28;20055;-85
2022/08/20 05:18:31;;;;;;;0.00;0.00;;;;;;;;;;5041140;28;20052;-86
2022/08/20 05:21:02;;;;;;;0.00;0.00;;;;;;;;;;5041492;28;20050;-85
2022/08/20 05:23:28;;;;;;;0.00;0.00;;;;;;;;;;5041258;28;20364;-84
2022/08/20 05:25:56;;;;;;;0.00;0.00;;;;;;;;;;5075554;28;20162;-85
2022/08/20 05:28:24;;;;;;;0.63;0.28;;;;;;;;;;5075456;28;20048;-85
2022/08/20 05:30:51;;;;;;;0.00;0.00;;;;;;;;;;5075835;28;20033;-86
2022/08/20 05:33:18;;;;;;;0.00;0.00;;;;;;;;;;5075181;28;20056;-86
2022/08/20 05:35:45;;;;;;;0.00;0.00;;;;;;;;;;5040986;28;20044;-84
2022/08/20 05:38:13;;;;;;;0.00;0.00;;;;;;;;;;5057500;28;20457;-85
2022/08/20 05:40:40;;;;;;;0.00;0.00;;;;;;;;;;5075423;28;20036;-86
2022/08/20 05:43:06;;;;;;;0.00;0.00;;;;;;;;;;5051406;28;20045;-85
2022/08/20 05:45:36;;;;;;;0.00;0.00;;;;;;;;;;5037007;28;20052;-85
2022/08/20 05:48:06;;;;;;;0.00;0.00;;;;;;;;;;5037056;28;20045;-85
2022/08/20 05:50:33;;;;;;;0.00;0.00;;;;;;;;;;5056605;28;20406;-86
2022/08/20 05:53:00;;;;;;;0.00;0.00;;;;;;;;;;5074946;28;20055;-88
2022/08/20 05:55:26;;;;;;;0.00;0.00;;;;;;;;;;5056777;28;20076;-84
2022/08/20 05:57:56;;;;;;;0.00;0.00;;;;;;;;;;5056726;28;20514;-83
2022/08/20 06:00:22;;;;;;;0.00;0.00;;;;;;;;;;5056775;28;20058;-84
2022/08/20 06:05:33;;;;;;;0.00;0.00;;;;;;;;;;5075158;28;20044;-86
2022/08/20 06:07:59;;;;;;;0.00;0.00;;;;;;;;;;5073279;28;20415;-82
2022/08/20 06:10:25;;;;;;;0.00;0.00;;;;;;;;;;5075099;28;20055;-83
2022/08/20 06:12:52;;;;;;;0.00;0.00;;;;;;;;;;5056628;28;20052;-83
2022/08/20 06:15:18;;;;;;;0.00;0.00;;;;;;;;;;5074965;28;20395;-83
2022/08/20 06:17:44;;;;;;;0.00;0.00;;;;;;;;;;5056918;28;20045;-84
2022/08/20 06:20:11;;;;;;;0.00;0.00;;;;;;;;;;5074583;28;20476;-84
2022/08/20 06:22:37;;;;;;;0.00;0.00;;;;;;;;;;5056834;28;20076;-83
2022/08/20 06:25:03;;;;;;;0.00;0.00;;;;;;;;;;5056430;28;20491;-83
2022/08/20 06:27:29;;;;;;;0.00;0.00;;;;;;;;;;5056543;28;20058;-85
2022/08/20 06:29:55;;;;;;;0.00;0.00;;;;;;;;;;5056486;28;20045;-83
2022/08/20 06:32:23;;;;;;;0.00;0.00;;;;;;;;;;5056501;28;20067;-83
2022/08/20 06:34:50;;;;;;;0.00;0.00;;;;;;;;;;5056417;28;20072;-84
2022/08/20 06:37:18;;;;;;;0.00;0.00;;;;;;;;;;5074248;28;20503;-84
2022/08/20 06:39:44;;;;;;;0.00;0.00;;;;;;;;;;5056181;28;20075;-84
2022/08/20 06:42:10;;;;;;;0.00;0.00;;;;;;;;;;5056636;28;20044;-87
2022/08/20 06:44:36;;;;;;;0.00;0.00;;;;;;;;;;5074017;28;20036;-87
2022/08/20 06:47:03;;;;;;;0.00;0.00;;;;;;;;;;5074072;28;20498;-86
2022/08/20 06:49:30;;;;;;;0.00;0.00;;;;;;;;;;5073976;28;20036;-89
2022/08/20 06:51:56;;;;;;;0.00;0.00;;;;;;;;;;5056033;28;20124;-85
2022/08/20 06:54:23;;;;;;;0.00;0.00;;;;;;;;;;5055986;28;20047;-86
2022/08/20 06:56:53;;;;;;;0.00;0.00;;;;;;;;;;5074125;28;20040;-87
2022/08/20 06:59:19;;;;;;;0.00;0.00;;;;;;;;;;5073787;28;20049;-86
2022/08/20 07:01:45;;;;;;;0.00;0.00;;;;;;;;;;5073518;28;20064;-87
2022/08/20 07:04:11;;;;;;;0.00;0.00;;;;;;;;;;5074143;28;20162;-88
2022/08/20 07:06:37;;;;;;;0.00;0.00;;;;;;;;;;5056295;28;20074;-85
2022/08/20 07:09:03;;;;;;;0.00;0.00;;;;;;;;;;5055832;28;20456;-86
2022/08/20 07:11:29;;;;;;;0.00;0.00;;;;;;;;;;5073950;28;20126;-88
2022/08/20 07:13:56;;;;;;;0.00;0.00;;;;;;;;;;5073486;28;20099;-94
2022/08/20 07:16:22;;;;;;;0.00;0.00;;;;;;;;;;5074789;28;20086;-93
2022/08/20 07:18:48;;;;;;;0.00;0.00;;;;;;;;;;5076615;28;20040;-93
2022/08/20 07:21:16;;;;;;;0.00;0.00;;;;;;;;;;5057471;28;20037;-90
2022/08/20 07:23:42;;;;;;;0.00;0.00;;;;;;;;;;5056785;28;20072;-94
2022/08/20 07:26:08;;;;;;;0.00;0.00;;;;;;;;;;5078600;28;20055;-94
2022/08/20 07:28:34;;;;;;;0.00;0.00;;;;;;;;;;5061386;28;20181;-94
2022/08/20 07:33:44;;;;;;;0.00;0.00;;;;;;;;;;5060768;28;20075;-92
2022/08/20 07:36:11;;;;;;;0.00;0.00;;;;;;;;;;5064262;28;20048;-94
2022/08/20 07:38:37;;;;;;;0.00;0.00;;;;;;;;;;5064661;28;20055;-92
2022/08/20 07:41:05;;;;;;;0.00;0.00;;;;;;;;;;5047754;28;20059;-93
2022/08/20 07:43:31;;;;;;;0.00;0.00;;;;;;;;;;5074647;28;20124;-84
2022/08/20 07:46:01;;;;;;;0.00;0.00;;;;;;;;;;5073220;28;20131;-87
2022/08/20 07:48:29;;;;;;;0.00;0.00;;;;;;;;;;5074871;28;20036;-93
2022/08/20 07:50:55;;;;;;;0.00;0.00;;;;;;;;;;5055925;28;20052;-88
2022/08/20 07:53:21;;;;;;;0.00;0.00;;;;;;;;;;5054861;28;20052;-91
2022/08/20 07:55:47;;;;;;;0.00;0.00;;;;;;;;;;5055544;28;20047;-90
2022/08/20 07:58:14;;;;;;;0.00;0.00;;;;;;;;;;5054901;28;20119;-90
2022/08/20 08:00:41;;;;;;;0.00;0.00;;;;;;;;;;5073260;28;20037;-89
2022/08/20 08:03:08;;;;;;;0.00;0.00;;;;;;;;;;5055024;28;20048;-87
2022/08/20 08:05:34;;;;;;;0.00;0.00;;;;;;;;;;5072870;28;20048;-85
2022/08/20 08:08:01;;;;;;;0.00;0.00;;;;;;;;;;5056391;28;20475;-84
2022/08/20 08:10:27;;;;;;;0.00;0.00;;;;;;;;;;5072537;28;20468;-84
2022/08/20 08:12:55;;;;;;;0.00;0.00;;;;;;;;;;5072666;28;20040;-84
2022/08/20 08:15:23;;;;;;;0.00;0.00;;;;;;;;;;5054629;28;20032;-84
2022/08/20 08:17:51;;;;;;;0.00;0.00;;;;;;;;;;5073346;28;20036;-84
2022/08/20 08:20:21;;;;;;;0.00;0.00;;;;;;;;;;5055157;28;20079;-84
2022/08/20 08:22:47;;;;;;;0.00;0.00;;;;;;;;;;5056202;28;20208;-86
2022/08/20 08:25:14;;;;;;;0.00;0.00;;;;;;;;;;5054754;28;20086;-84
2022/08/20 08:27:41;;;;;;;0.00;0.00;;;;;;;;;;5072654;28;20040;-84
2022/08/20 08:30:07;;;;;;;0.00;0.00;;;;;;;;;;5055029;28;20147;-82
2022/08/20 08:32:35;;;;;;;0.00;0.00;;;;;;;;;;5058740;28;20044;-84
2022/08/20 08:35:07;;;;;;;0.00;0.00;;;;;;;;;;5058422;28;20045;-86
2022/08/20 08:37:33;;;;;;;0.00;0.00;;;;;;;;;;5058945;28;20085;-83
2022/08/20 08:40:00;;;;;;;0.00;0.00;;;;;;;;;;5058438;28;20120;-84
2022/08/20 08:42:33;;;;;;;0.00;0.00;;;;;;;;;;5058595;28;20040;-84
2022/08/20 08:44:59;;;;;;;0.00;0.00;;;;;;;;;;5076333;28;20550;-83
2022/08/20 08:47:29;;;;;;;0.00;0.00;;;;;;;;;;5058819;28;20143;-83
2022/08/20 08:49:56;;;;;;;0.00;0.00;;;;;;;;;;5058306;28;20044;-83
2022/08/20 08:52:31;;;;;;;0.00;0.00;;;;;;;;;;5058323;28;20501;-83
2022/08/20 08:54:58;;;;;;;0.00;0.00;;;;;;;;;;5058461;28;20040;-84
2022/08/20 08:57:24;;;;;;;0.00;0.00;;;;;;;;;;5058598;28;20040;-83
2022/08/20 09:00:01;;;;;;;0.00;0.00;;;;;;;;;;5058359;28;20045;-83
2022/08/20 09:02:28;;;;;;;0.00;0.00;;;;;;;;;;5076390;28;20044;-83
2022/08/20 09:04:55;;;;;;;0.00;0.00;;;;;;;;;;5075972;28;20037;-83
2022/08/20 09:07:23;;;;;;;0.00;0.00;;;;;;;;;;5076230;28;20040;-85
2022/08/20 09:09:49;;;;;;;0.00;0.00;;;;;;;;;;5058037;28;20048;-84
2022/08/20 09:12:23;;;;;;;0.00;0.00;;;;;;;;;;5057966;28;20048;-83
2022/08/20 09:14:50;;;;;;;0.00;0.00;;;;;;;;;;5057758;28;20044;-84
2022/08/20 09:17:17;;;;;;;0.00;0.00;;;;;;;;;;5058177;28;20055;-84
2022/08/20 09:19:43;;;;;;;0.00;0.00;;;;;;;;;;5075751;28;20480;-83
2022/08/20 09:22:09;;;;;;;0.00;0.00;;;;;;;;;;5057885;28;20499;-84
2022/08/20 09:24:36;;;;;;;0.00;0.00;;;;;;;;;;5057414;28;20711;-83
2022/08/20 09:27:02;;;;;;;0.00;0.00;;;;;;;;;;5075875;28;20086;-84
2022/08/20 09:29:28;;;;;;;0.00;0.00;;;;;;;;;;5057633;28;20052;-85
2022/08/20 09:32:08;;;;;;;0.00;0.00;;;;;;;;;;5057610;28;20041;-84
2022/08/20 09:34:39;;;;;;;0.00;0.00;;;;;;;;;;5057390;28;20074;-85
2022/08/20 09:37:05;;;;;;;0.00;0.00;;;;;;;;;;5075527;28;20526;-84
2022/08/20 09:39:31;;;;;;;0.00;0.00;;;;;;;;;;5075533;28;20435;-84
2022/08/20 09:42:11;;;;;;;0.00;0.00;;;;;;;;;;5074616;28;20147;-85
2022/08/20 09:44:38;;;;;;;0.00;0.00;;;;;;;;;;5074994;28;20518;-83
2022/08/20 09:47:04;;;;;;;0.00;0.00;;;;;;;;;;5057599;28;20097;-84
2022/08/20 09:49:30;;;;;;;0.00;0.00;;;;;;;;;;5075233;28;20480;-84
2022/08/20 09:51:57;;;;;;;0.00;0.00;;;;;;;;;;5074904;28;20056;-83
2022/08/20 09:54:26;;;;;;;0.00;0.00;;;;;;;;;;5075470;28;20119;-87
2022/08/20 09:56:52;;;;;;;0.00;0.00;;;;;;;;;;5057045;28;20042;-83
2022/08/20 09:59:18;;;;;;;0.00;0.00;;;;;;;;;;5075425;28;20094;-84
2022/08/20 10:01:44;;;;;;;0.00;0.00;;;;;;;;;;5057281;28;20056;-83
2022/08/20 10:04:10;;;;;;;0.00;0.00;;;;;;;;;;5057147;28;20495;-82
2022/08/20 10:06:40;;;;;;;0.00;0.00;;;;;;;;;;5056921;28;20048;-83
2022/08/20 10:09:06;;;;;;;0.00;0.00;;;;;;;;;;5056732;28;20541;-82
2022/08/20 10:11:32;;;;;;;0.00;0.00;;;;;;;;;;5074269;28;20535;-84
2022/08/20 10:13:58;;;;;;;0.00;0.00;;;;;;;;;;5074927;28;20456;-83
2022/08/20 10:16:24;;;;;;;0.00;0.00;;;;;;;;;;5056662;28;20041;-84
2022/08/20 10:18:51;;;;;;;0.00;0.00;;;;;;;;;;5056998;28;20042;-83
2022/08/20 10:21:17;;;;;;;0.00;0.00;;;;;;;;;;5074605;28;20044;-83
2022/08/20 10:23:44;;;;;;;0.00;0.00;;;;;;;;;;5056736;28;20044;-84
2022/08/20 10:26:10;;;;;;;0.00;0.00;;;;;;;;;;5074351;28;20060;-83
2022/08/20 10:28:37;;;;;;;0.00;0.00;;;;;;;;;;5057262;28;20071;-84
2022/08/20 10:31:05;;;;;;;0.00;0.00;;;;;;;;;;5074639;28;20028;-84
2022/08/20 10:33:31;;;;;;;0.00;0.00;;;;;;;;;;5056453;28;20044;-83
2022/08/20 10:36:05;;;;;;;0.00;0.00;;;;;;;;;;5074629;28;20039;-84
2022/08/20 10:38:31;;;;;;;0.00;0.00;;;;;;;;;;5055988;28;20090;-83
2022/08/20 10:40:57;;;;;;;0.00;0.00;;;;;;;;;;5056208;28;20052;-83
2022/08/20 10:43:22;;;;;;;0.00;0.00;;;;;;;;;;5056546;28;20048;-83
2022/08/20 10:45:50;;;;;;;0.00;0.00;;;;;;;;;;5056159;28;20093;-83
2022/08/20 10:48:16;;;;;;;0.00;0.00;;;;;;;;;;5074220;28;20181;-85
2022/08/20 10:50:42;;;;;;;0.00;0.00;;;;;;;;;;5074168;28;20038;-83
2022/08/20 10:53:08;;;;;;;0.00;0.00;;;;;;;;;;5073852;28;20121;-85
2022/08/20 10:55:34;;;;;;;0.00;0.00;;;;;;;;;;5055434;28;20044;-84
2022/08/20 10:58:00;;;;;;;0.00;0.00;;;;;;;;;;5074185;28;20044;-84
2022/08/20 11:00:26;;;;;;;0.00;0.00;;;;;;;;;;5055904;28;20051;-82
2022/08/20 11:02:52;;;;;;;0.00;0.00;;;;;;;;;;5056002;28;20052;-82
2022/08/20 11:05:18;;;;;;;0.00;0.00;;;;;;;;;;5055974;28;20364;-83
2022/08/20 11:07:45;;;;;;;0.00;0.00;;;;;;;;;;5073813;28;20048;-83
2022/08/20 11:10:11;;;;;;;0.32;0.15;;;;;;;;;;5074004;28;20098;-83
2022/08/20 11:12:37;;;;;;;0.00;0.00;;;;;;;;;;5072757;28;20044;-84
2022/08/20 11:15:03;;;;;;;0.00;0.00;;;;;;;;;;5073698;28;20044;-83
2022/08/20 11:17:31;;;;;;;0.00;0.00;;;;;;;;;;5055461;28;20048;-82
2022/08/20 11:19:58;;;;;;;0.00;0.00;;;;;;;;;;5055564;28;20040;-83
2022/08/20 11:22:25;;;;;;;0.00;0.00;;;;;;;;;;5073167;28;20044;-83
2022/08/20 11:24:51;;;;;;;0.00;0.00;;;;;;;;;;5055584;28;20071;-83
2022/08/20 11:27:27;;;;;;;0.00;0.00;;;;;;;;;;5073567;28;20067;-83
2022/08/20 11:29:53;;;;;;;0.00;0.00;;;;;;;;;;5073595;28;20048;-83
2022/08/20 11:32:20;;;;;;;0.00;0.00;;;;;;;;;;5073039;28;20049;-82
2022/08/20 11:34:46;;;;;;;0.00;0.00;;;;;;;;;;5073296;28;20037;-83
2022/08/20 11:37:13;;;;;;;0.00;0.00;;;;;;;;;;5055117;28;20040;-82
2022/08/20 11:39:42;;;;;;;0.00;0.00;;;;;;;;;;5073434;28;20032;-81
2022/08/20 11:42:09;;;;;;;0.00;0.00;;;;;;;;;;5055103;28;20055;-82
2022/08/20 11:44:35;;;;;;;0.00;0.00;;;;;;;;;;5072999;28;20494;-81
2022/08/20 11:47:02;;;;;;;0.00;0.00;;;;;;;;;;5054929;28;20041;-81
2022/08/20 11:49:32;;;;;;;0.00;0.00;;;;;;;;;;5055348;28;20483;-82
2022/08/20 11:51:58;;;;;;;0.00;0.00;;;;;;;;;;5055060;28;20040;-81
2022/08/20 11:54:24;;;;;;;0.00;0.00;;;;;;;;;;5054926;28;20044;-82
2022/08/20 11:56:50;;;;;;;0.00;0.00;;;;;;;;;;5065333;28;20147;-82
2022/08/20 11:59:17;;;;;;;0.00;0.00;;;;;;;;;;5062728;28;20051;-81
2022/08/20 12:01:43;;;;;;;0.00;0.00;;;;;;;;;;5047510;28;20060;-81
2022/08/20 12:04:09;;;;;;;0.00;0.00;;;;;;;;;;5054572;28;20044;-81
2022/08/20 12:06:35;;;;;;;0.00;0.00;;;;;;;;;;5072354;28;20083;-81
2022/08/20 12:09:01;;;;;;;0.00;0.00;;;;;;;;;;5055093;28;20068;-82
2022/08/20 12:11:27;;;;;;;0.00;0.00;;;;;;;;;;5054530;28;20388;-81
2022/08/20 12:13:53;;;;;;;0.00;0.00;;;;;;;;;;5066955;28;20047;-81
2022/08/20 12:16:19;;;;;;;0.00;0.00;;;;;;;;;;5070330;28;20097;-82
2022/08/20 12:18:45;;;;;;;0.00;0.00;;;;;;;;;;5054766;28;20040;-82
2022/08/20 12:21:11;;;;;;;0.00;0.00;;;;;;;;;;5072737;28;20064;-82
2022/08/20 12:23:37;;;;;;;0.00;0.00;;;;;;;;;;5055075;28;20411;-82
2022/08/20 12:26:04;;;;;;;0.00;0.00;;;;;;;;;;5054568;28;20384;-81
2022/08/20 12:28:30;;;;;;;0.00;0.00;;;;;;;;;;5072601;28;20048;-81
2022/08/20 12:30:57;;;;;;;0.00;0.00;;;;;;;;;;5054867;28;20098;-81
2022/08/20 12:33:23;;;;;;;0.00;0.00;;;;;;;;;;5072221;28;20422;-83
2022/08/20 12:35:49;;;;;;;0.00;0.00;;;;;;;;;;5038029;28;20051;-82
2022/08/20 12:38:15;;;;;;;0.00;0.00;;;;;;;;;;5054613;28;20123;-82
2022/08/20 12:40:41;;;;;;;0.00;0.00;;;;;;;;;;5054551;28;20502;-82
2022/08/20 12:43:08;;;;;;;0.10;0.00;;;;;;;;;;5072625;28;20036;-82
2022/08/20 12:45:34;;;;;;;0.00;0.00;;;;;;;;;;5072348;28;20510;-81
2022/08/20 12:48:01;;;;;;;0.00;0.00;;;;;;;;;;5072212;28;20479;-82
2022/08/20 12:50:27;;;;;;;0.00;0.00;;;;;;;;;;5072679;28;20037;-81
2022/08/20 12:52:53;;;;;;;0.00;0.00;;;;;;;;;;5054285;28;20427;-82
2022/08/20 12:55:19;;;;;;;0.00;0.00;;;;;;;;;;5054592;28;20048;-81
2022/08/20 12:57:47;;;;;;;0.00;0.00;;;;;;;;;;5072219;28;20040;-82
2022/08/20 13:00:15;;;;;;;0.00;0.00;;;;;;;;;;5054386;28;20043;-82
2022/08/20 13:02:41;;;;;;;0.00;0.00;;;;;;;;;;5054151;28;20051;-82
2022/08/20 13:05:08;;;;;;;0.00;0.00;;;;;;;;;;5054532;28;20113;-82
2022/08/20 13:07:35;;;;;;;0.00;0.00;;;;;;;;;;5054028;28;20082;-82
2022/08/20 13:10:01;;;;;;;0.00;0.00;;;;;;;;;;5072253;28;20040;-81
2022/08/20 13:12:27;;;;;;;0.00;0.00;;;;;;;;;;5072224;28;20090;-82
2022/08/20 13:14:53;;;;;;;0.00;0.00;;;;;;;;;;5054054;28;20044;-82
2022/08/20 13:17:19;;;;;;;0.00;0.00;;;;;;;;;;5072969;28;20090;-82
2022/08/20 13:19:45;;;;;;;0.00;0.00;;;;;;;;;;5076040;28;20036;-82
2022/08/20 13:22:12;;;;;;;0.00;0.00;;;;;;;;;;5075811;28;20055;-82
2022/08/20 13:24:38;;;;;;;0.00;0.00;;;;;;;;;;5057652;28;20076;-82
2022/08/20 13:27:05;;;;;;;0.00;0.00;;;;;;;;;;5057665;28;20048;-82
2022/08/20 13:29:31;;;;;;;0.00;0.00;;;;;;;;;;5075817;28;20044;-81
2022/08/20 13:31:57;;;;;;;0.00;0.00;;;;;;;;;;5057184;28;20105;-82
2022/08/20 13:34:23;;;;;;;0.00;0.00;;;;;;;;;;5075510;28;20043;-81
2022/08/20 13:36:49;;;;;;;0.00;0.00;;;;;;;;;;5057836;28;20102;-82
2022/08/20 13:39:15;;;;;;;0.00;0.00;;;;;;;;;;5057733;28;20055;-82
2022/08/20 13:41:42;;;;;;;0.00;0.00;;;;;;;;;;5075449;28;20488;-81
2022/08/20 13:44:09;;;;;;;0.00;0.00;;;;;;;;;;5075268;28;20051;-81
2022/08/20 13:46:35;;;;;;;0.00;0.00;;;;;;;;;;5075517;28;20048;-82
2022/08/20 13:49:01;;;;;;;0.00;0.00;;;;;;;;;;5075307;28;20036;-82
2022/08/20 13:51:27;;;;;;;0.00;0.00;;;;;;;;;;5057132;28;20054;-81
2022/08/20 13:53:53;;;;;;;0.00;0.00;;;;;;;;;;5075459;28;20129;-86
2022/08/20 13:56:19;;;;;;;0.00;0.00;;;;;;;;;;5057539;28;20044;-84
2022/08/20 13:58:45;;;;;;;0.00;0.00;;;;;;;;;;5057040;28;20493;-78
2022/08/20 14:01:12;;;;;;;0.00;0.00;;;;;;;;;;5057220;28;20086;-82
2022/08/20 14:03:38;;;;;;;0.00;0.00;;;;;;;;;;5056717;28;20471;-81
2022/08/20 14:06:04;;;;;;;0.00;0.00;;;;;;;;;;5057178;28;20072;-82
2022/08/20 14:08:30;;;;;;;0.00;0.00;;;;;;;;;;5057090;28;20044;-82
2022/08/20 14:10:58;;;;;;;0.00;0.00;;;;;;;;;;5075258;28;20048;-81
2022/08/20 14:13:25;;;;;;;0.00;0.00;;;;;;;;;;5056644;28;20048;-81
2022/08/20 14:15:51;;;;;;;0.00;0.00;;;;;;;;;;5056900;28;20044;-82
2022/08/20 14:18:17;;;;;;;0.00;0.00;;;;;;;;;;5074754;28;20040;-86
2022/08/20 14:20:44;;;;;;;0.00;0.00;;;;;;;;;;5075190;28;20116;-84
2022/08/20 14:23:10;;;;;;;0.00;0.00;;;;;;;;;;5074547;28;20123;-82
2022/08/20 14:25:36;;;;;;;0.00;0.00;;;;;;;;;;5056535;28;20063;-81
2022/08/20 14:28:10;;;;;;;0.00;0.00;;;;;;;;;;5074126;28;20492;-83
2022/08/20 14:30:36;;;;;;;0.00;0.00;;;;;;;;;;5074921;28;20036;-81
2022/08/20 14:33:02;;;;;;;0.00;0.00;;;;;;;;;;5056303;28;20078;-81
2022/08/20 14:35:28;;;;;;;0.00;0.00;;;;;;;;;;5074311;28;20047;-81
2022/08/20 14:37:55;;;;;;;0.00;0.00;;;;;;;;;;5056321;28;20045;-83
2022/08/20 14:40:22;;;;;;;0.00;0.00;;;;;;;;;;5055472;28;20545;-81
2022/08/20 14:42:48;;;;;;;0.00;0.00;;;;;;;;;;5056215;28;20060;-85
2022/08/20 14:45:15;;;;;;;0.00;0.00;;;;;;;;;;5074144;28;20507;-82
2022/08/20 14:47:42;;;;;;;0.00;0.00;;;;;;;;;;5074188;28;20036;-81
2022/08/20 14:52:44;;;;;;;0.00;0.00;;;;;;;;;;5154822;22;20041;-82